Time;durP1;ratioP1;P1;durP2;ratioP2;P2;SDS_P1;SDS_P2;PMS_P1;PMS_P2;Temp;Humidity;BMP_temperature;BMP_pressure;BME280_temperature;BME280_humidity;BME280_pressure;Samples;Min_cycle;Max_cycle;Signal;HPM_P1;HPM_P2
2023/01/29 00:01:50;;;;;;;16.92;9.52;;;;;;;-0.08;70.90;94861.13;5029813;28;20570;-73
2023/01/29 00:04:15;;;;;;;15.90;10.30;;;;;;;-0.13;70.88;94865.59;5048346;28;20053;-73
2023/01/29 00:06:41;;;;;;;16.33;10.65;;;;;;;-0.14;71.12;94876.69;5029044;28;20037;-73
2023/01/29 00:09:06;;;;;;;16.85;10.73;;;;;;;-0.28;70.99;94864.47;5028203;28;20025;-73
2023/01/29 00:11:32;;;;;;;18.85;9.95;;;;;;;-0.20;71.33;94865.00;5030557;28;20032;-72
2023/01/29 00:13:57;;;;;;;18.73;11.65;;;;;;;-0.01;71.10;94885.53;5013455;28;20479;-73
2023/01/29 00:16:23;;;;;;;18.52;10.55;;;;;;;-0.04;71.20;94873.69;5047986;28;20029;-73
2023/01/29 00:18:48;;;;;;;19.05;10.85;;;;;;;-0.14;71.42;94897.97;5028514;28;20032;-73
2023/01/29 00:21:18;;;;;;;16.88;9.35;;;;;;;-0.14;71.25;94887.75;5048244;28;20041;-73
2023/01/29 00:23:44;;;;;;;15.60;9.40;;;;;;;-0.11;70.75;94894.44;5047357;28;20498;-73
2023/01/29 00:26:10;;;;;;;16.85;9.93;;;;;;;0.02;70.41;94900.72;5048205;28;20120;-73
2023/01/29 00:28:35;;;;;;;14.07;8.95;;;;;;;0.01;70.20;94896.53;5028831;28;20507;-73
2023/01/29 00:31:07;;;;;;;12.52;7.95;;;;;;;-0.06;70.42;94898.47;5029099;28;20093;-73
2023/01/29 00:33:33;;;;;;;12.52;8.00;;;;;;;-0.02;70.64;94902.56;5046459;28;20230;-73
2023/01/29 00:36:02;;;;;;;11.73;7.20;;;;;;;-0.14;70.00;94872.44;5046371;28;20489;-72
2023/01/29 00:38:27;;;;;;;15.65;7.53;;;;;;;0.06;70.47;94909.13;5051241;28;20095;-73
2023/01/29 00:46:20;;;;;;;13.43;8.05;;;;;;;-0.18;70.58;94896.41;5049925;28;20113;-72
2023/01/29 00:48:46;;;;;;;14.02;8.52;;;;;;;-0.14;70.06;94886.91;5033359;28;20483;-73
2023/01/29 00:51:11;;;;;;;12.57;7.88;;;;;;;-0.08;70.17;94913.03;5033185;28;20453;-73
2023/01/29 00:53:37;;;;;;;11.38;6.88;;;;;;;-0.50;70.85;94862.78;5049827;28;20029;-73
2023/01/29 00:56:02;;;;;;;13.10;7.05;;;;;;;-0.26;70.20;94888.22;5033165;28;20036;-73
2023/01/29 00:58:33;;;;;;;11.20;7.22;;;;;;;-0.15;70.19;94909.06;5033323;28;20029;-73
2023/01/29 01:01:00;;;;;;;11.98;7.78;;;;;;;-0.18;70.77;94909.19;5034098;28;20044;-73
2023/01/29 01:03:25;;;;;;;13.85;8.20;;;;;;;-0.36;71.88;94902.22;5047953;28;20028;-73
2023/01/29 01:06:04;;;;;;;14.65;8.65;;;;;;;-0.42;71.91;94897.38;5033087;28;20060;-73
2023/01/29 01:11:14;;;;;;;13.02;7.38;;;;;;;-0.10;71.44;94903.78;5015828;28;20423;-73
2023/01/29 01:13:39;;;;;;;13.18;7.93;;;;;;;-0.10;71.08;94904.59;4997166;28;20025;-73
2023/01/29 01:16:12;;;;;;;13.60;8.02;;;;;;;-0.20;70.74;94905.84;5029746;28;20030;-73
2023/01/29 01:18:38;;;;;;;11.38;6.90;;;;;;;-0.28;72.16;94900.22;5013727;28;20022;-72
2023/01/29 01:21:03;;;;;;;12.57;7.85;;;;;;;-0.30;71.52;94886.69;5031323;28;20037;-72
2023/01/29 01:23:29;;;;;;;13.15;7.13;;;;;;;-0.33;71.37;94894.47;5029577;28;20091;-73
2023/01/29 01:25:54;;;;;;;13.73;7.88;;;;;;;-0.50;72.96;94893.41;5029530;28;20416;-73
2023/01/29 01:28:20;;;;;;;13.55;8.15;;;;;;;-0.49;72.34;94876.38;5013043;28;20025;-73
2023/01/29 01:30:45;;;;;;;12.40;7.80;;;;;;;-0.55;72.48;94862.13;5012999;28;20384;-73
2023/01/29 01:33:11;;;;;;;16.08;8.48;;;;;;;-0.34;73.08;94891.06;5029528;28;20056;-72
2023/01/29 01:35:37;;;;;;;15.18;8.55;;;;;;;-0.32;71.79;94868.03;5029460;28;20080;-73
2023/01/29 01:38:03;;;;;;;13.30;7.80;;;;;;;-0.19;72.33;94899.88;5012907;28;20510;-73
2023/01/29 01:40:28;;;;;;;14.13;7.72;;;;;;;-0.35;72.20;94893.69;5012935;28;20038;-73
2023/01/29 01:42:56;;;;;;;11.73;7.75;;;;;;;-0.40;72.51;94887.94;5012948;28;20032;-73
2023/01/29 01:45:22;;;;;;;15.02;8.00;;;;;;;-0.46;73.70;94905.16;5013211;28;20108;-73
2023/01/29 01:47:50;;;;;;;12.38;7.88;;;;;;;-0.22;71.70;94897.44;5031001;28;20503;-73
2023/01/29 01:50:41;;;;;;;12.93;8.10;;;;;;;-0.28;72.67;94902.75;5029265;28;20108;-73
2023/01/29 01:53:09;;;;;;;11.87;7.50;;;;;;;-0.35;71.90;94888.59;5029389;28;20499;-73
2023/01/29 01:55:35;;;;;;;14.20;8.15;;;;;;;-0.25;72.63;94908.59;5029270;28;20025;-73
2023/01/29 01:58:05;;;;;;;14.25;8.15;;;;;;;-0.29;72.83;94903.66;5029259;28;20044;-73
2023/01/29 02:00:30;;;;;;;13.75;7.93;;;;;;;-0.32;72.77;94914.00;5029188;28;20121;-72
2023/01/29 02:11:30;;;;;;;13.90;8.32;;;;;;;-0.39;73.59;94912.56;5029670;28;20145;-73
2023/01/29 02:13:55;;;;;;;12.05;7.50;;;;;;;-0.29;72.98;94913.88;5029092;28;20034;-73
2023/01/29 02:16:21;;;;;;;13.77;7.47;;;;;;;-0.66;73.32;94889.78;4996321;28;20077;-73
2023/01/29 02:18:47;;;;;;;13.95;8.20;;;;;;;-0.56;73.72;94906.38;5012697;28;20167;-73
2023/01/29 02:21:40;;;;;;;11.75;7.32;;;;;;;-0.43;74.56;94921.25;5012659;28;20045;-72
2023/01/29 02:24:39;;;;;;;12.60;7.68;;;;;;;-0.35;73.99;94920.06;5031481;28;20067;-73
2023/01/29 02:27:09;;;;;;;16.63;9.48;;;;;;;-0.25;74.11;94928.19;5032834;28;20052;-72
2023/01/29 02:29:53;;;;;;;15.00;8.93;;;;;;;-0.19;73.36;94930.50;5032452;28;20532;-73
2023/01/29 02:32:53;;;;;;;15.88;8.95;;;;;;;-0.33;73.79;94928.50;5033648;28;20038;-72
2023/01/29 02:35:33;;;;;;;14.60;8.07;;;;;;;-0.27;73.99;94927.44;5032695;28;20026;-73
2023/01/29 02:38:07;;;;;;;14.50;8.57;;;;;;;-0.46;74.95;94935.78;5016353;28;20026;-73
2023/01/29 02:40:47;;;;;;;14.32;8.80;;;;;;;-0.50;75.34;94924.03;5033602;28;20619;-73
2023/01/29 02:43:52;;;;;;;15.68;9.98;;;;;;;-0.38;75.19;94944.88;5000078;28;20026;-73
2023/01/29 02:46:49;;;;;;;13.88;8.65;;;;;;;-0.56;75.55;94942.09;5031320;28;20427;-73
2023/01/29 02:49:33;;;;;;;15.70;8.93;;;;;;;-0.47;75.18;94941.78;5032466;28;20543;-72
2023/01/29 02:52:03;;;;;;;14.73;8.65;;;;;;;-0.53;75.16;94944.56;5032249;28;20044;-72
2023/01/29 02:54:49;;;;;;;13.85;8.35;;;;;;;-0.49;75.15;94932.53;5032175;28;20060;-73
2023/01/29 02:57:28;;;;;;;13.63;8.40;;;;;;;-0.40;74.79;94941.53;5016372;28;20419;-73
2023/01/29 03:00:03;;;;;;;14.38;8.60;;;;;;;-0.46;74.80;94947.72;5016147;28;20025;-73
2023/01/29 03:02:37;;;;;;;13.43;8.25;;;;;;;-0.46;75.02;94938.31;5032141;28;20036;-72
2023/01/29 03:05:05;;;;;;;11.40;7.32;;;;;;;-0.36;75.60;94946.47;5016152;28;20033;-73
2023/01/29 03:07:45;;;;;;;10.48;7.20;;;;;;;-0.43;75.37;94944.22;5015521;28;20045;-73
2023/01/29 03:10:15;;;;;;;13.93;8.02;;;;;;;-0.33;75.08;94954.03;5025716;28;20203;-72
2023/01/29 03:12:40;;;;;;;12.18;7.70;;;;;;;-0.37;75.01;94952.47;5032141;28;20120;-73
2023/01/29 03:15:17;;;;;;;14.60;8.68;;;;;;;-0.34;75.41;94947.22;5031898;28;20032;-73
2023/01/29 03:18:08;;;;;;;12.32;7.63;;;;;;;-0.51;75.71;94936.84;5032037;28;20038;-73
2023/01/29 03:20:37;;;;;;;11.55;7.28;;;;;;;-0.48;75.32;94952.88;5031712;28;20057;-73
2023/01/29 03:23:08;;;;;;;12.05;7.68;;;;;;;-0.41;74.91;94945.00;5015500;28;20038;-73
2023/01/29 03:34:17;;;;;;;11.02;7.63;;;;;;;-0.24;73.76;94947.72;5017777;28;20045;-73
2023/01/29 03:36:59;;;;;;;10.70;6.30;;;;;;;-0.46;73.89;94933.22;5016760;28;20025;-73
2023/01/29 03:39:27;;;;;;;12.35;9.93;;;;;;;-0.32;73.64;94963.34;5029932;28;20043;-73
2023/01/29 03:42:08;;;;;;;10.45;5.95;;;;;;;-0.44;74.51;94962.97;5014987;28;20136;-72
2023/01/29 03:44:56;;;;;;;;;;;;;;;-0.48;74.34;94959.69;5015140;28;20049;-73
2023/01/29 03:47:31;;;;;;;8.10;5.13;;;;;;;-0.45;73.95;94949.38;5031655;28;19967;-73
2023/01/29 03:50:13;;;;;;;9.40;6.10;;;;;;;-0.48;73.50;94949.47;5031138;28;20095;-73
2023/01/29 03:52:46;;;;;;;8.93;5.75;;;;;;;-0.48;74.43;94947.75;5045638;28;20621;-73
2023/01/29 03:55:17;;;;;;;9.10;5.25;;;;;;;-0.37;73.83;94951.63;5047381;28;20116;-73
2023/01/29 03:57:54;;;;;;;8.73;5.47;;;;;;;-0.42;73.66;94959.44;5031212;28;20029;-73
2023/01/29 04:00:22;;;;;;;7.95;5.43;;;;;;;-0.36;73.41;94951.59;5030932;28;20566;-73
2023/01/29 04:03:13;;;;;;;10.55;6.10;;;;;;;-0.30;73.38;94947.97;5014516;28;20454;-73
2023/01/29 04:05:44;;;;;;;11.48;7.38;;;;;;;-0.22;73.60;94953.63;5044596;28;20040;-73
2023/01/29 04:08:13;;;;;;;8.15;5.35;;;;;;;-0.35;73.64;94944.75;5030782;28;20034;-73
2023/01/29 04:10:38;;;;;;;7.32;5.45;;;;;;;-0.17;72.83;94961.91;5034195;28;20112;-73
2023/01/29 04:13:09;;;;;;;8.60;5.30;;;;;;;-0.34;73.19;94948.97;5051790;28;20032;-73
2023/01/29 04:15:41;;;;;;;8.30;5.65;;;;;;;-0.58;74.55;94941.34;5050548;28;20033;-72
2023/01/29 04:18:06;;;;;;;9.98;6.15;;;;;;;-0.35;74.25;94965.19;5034548;28;20036;-73
2023/01/29 04:20:32;;;;;;;8.68;6.03;;;;;;;-0.38;74.35;94968.69;5050422;28;20418;-73
2023/01/29 04:22:57;;;;;;;8.55;5.60;;;;;;;-0.29;74.57;94975.16;5050422;28;20028;-73
2023/01/29 04:25:27;;;;;;;8.48;6.18;;;;;;;-0.49;74.05;94958.03;5050179;28;20068;-72
2023/01/29 04:28:05;;;;;;;8.82;5.45;;;;;;;-0.33;74.52;94963.41;5018204;28;20479;-73
2023/01/29 04:30:44;;;;;;;8.50;5.82;;;;;;;-0.43;74.47;94949.31;5050029;28;20037;-73
2023/01/29 04:33:50;;;;;;;10.30;6.82;;;;;;;-0.25;74.94;94972.44;5034791;28;20049;-73
2023/01/29 04:36:40;;;;;;;8.40;5.38;;;;;;;-0.20;74.37;94968.88;5033597;28;20029;-73
2023/01/29 04:39:21;;;;;;;7.80;5.43;;;;;;;-0.28;74.22;94966.59;5050126;28;20411;-73
2023/01/29 04:42:02;;;;;;;9.23;5.25;;;;;;;-0.28;74.82;94977.66;5034226;28;20029;-73
2023/01/29 04:44:38;;;;;;;7.00;4.97;;;;;;;-0.40;73.60;94952.56;5051263;28;20102;-73
2023/01/29 04:47:05;;;;;;;6.72;4.85;;;;;;;-0.21;73.52;94982.53;5049581;28;20037;-73
2023/01/29 04:49:55;;;;;;;7.53;4.95;;;;;;;-0.33;74.02;94973.63;5049925;28;20025;-73
2023/01/29 04:52:28;;;;;;;7.13;4.78;;;;;;;-0.39;73.40;94978.94;5034752;28;20486;-73
2023/01/29 04:55:38;;;;;;;8.27;5.22;;;;;;;-0.27;72.98;94979.31;5034186;28;20052;-73
2023/01/29 04:58:30;;;;;;;10.45;5.78;;;;;;;-0.42;73.36;94972.22;5047387;28;20481;-73
2023/01/29 05:00:56;;;;;;;9.75;5.63;;;;;;;-0.33;73.89;94978.72;5050139;28;20474;-73
2023/01/29 05:03:23;;;;;;;8.07;5.10;;;;;;;-0.28;73.00;94977.66;5033162;28;20043;-73
2023/01/29 05:05:48;;;;;;;16.80;5.97;;;;;;;-0.56;73.13;94952.31;5033374;28;20036;-73
2023/01/29 05:08:16;;;;;;;9.02;5.93;;;;;;;-0.36;73.25;94978.81;5033015;28;20041;-72
2023/01/29 05:10:42;;;;;;;8.02;5.70;;;;;;;-0.34;72.91;94982.16;5013272;28;20067;-73
2023/01/29 05:13:09;;;;;;;8.82;5.43;;;;;;;-0.40;73.53;94983.22;5029719;28;20033;-73
2023/01/29 05:15:37;;;;;;;7.75;5.38;;;;;;;-0.31;73.39;94987.13;4997042;28;20029;-73
2023/01/29 05:18:07;;;;;;;8.60;5.35;;;;;;;-0.47;73.50;94990.28;5013457;28;20056;-73
2023/01/29 05:20:34;;;;;;;7.88;4.88;;;;;;;-0.82;73.20;94920.13;5029629;28;20029;-73
2023/01/29 05:22:59;;;;;;;9.15;6.25;;;;;;;-0.42;73.46;94994.38;5013388;28;20022;-73
2023/01/29 05:25:27;;;;;;;6.07;4.85;;;;;;;-0.59;73.69;94980.50;5029522;28;20127;-73
2023/01/29 05:28:12;;;;;;;7.70;5.10;;;;;;;-0.64;73.24;94974.75;5013475;28;20112;-73
2023/01/29 05:30:38;;;;;;;11.45;9.43;;;;;;;-0.48;73.49;94987.78;5015984;28;20122;-73
2023/01/29 05:33:04;;;;;;;8.15;4.82;;;;;;;-0.42;72.75;94999.47;5013001;28;20499;-73
2023/01/29 05:35:29;;;;;;;6.63;4.43;;;;;;;-0.45;72.76;95005.53;5013039;28;20491;-73
2023/01/29 05:37:55;;;;;;;7.97;5.18;;;;;;;-0.61;73.47;94992.50;5029486;28;20041;-73
2023/01/29 05:40:21;;;;;;;7.93;5.13;;;;;;;-0.60;72.99;94986.50;5029434;28;20114;-74
2023/01/29 05:42:47;;;;;;;8.50;5.85;;;;;;;-0.28;73.08;95008.31;5013223;28;20033;-73
2023/01/29 05:45:12;;;;;;;7.70;5.55;;;;;;;-0.38;73.07;94996.75;5029416;28;20045;-73
2023/01/29 05:47:38;;;;;;;8.18;5.78;;;;;;;-0.55;74.20;94991.44;5031004;28;20017;-73
2023/01/29 05:50:04;;;;;;;11.52;7.70;;;;;;;-0.44;74.19;95011.47;5013002;28;20458;-73
2023/01/29 05:52:30;;;;;;;11.18;6.43;;;;;;;-0.47;73.71;94992.00;5012795;28;20091;-73
2023/01/29 05:54:55;;;;;;;9.90;6.40;;;;;;;-0.40;73.91;95015.56;5013150;28;20034;-73
2023/01/29 05:57:21;;;;;;;10.70;8.30;;;;;;;-0.49;74.38;95014.19;5030863;28;20030;-73
2023/01/29 05:59:46;;;;;;;10.70;6.85;;;;;;;-0.41;74.55;95026.69;5033000;28;20038;-74
2023/01/29 06:02:12;;;;;;;11.90;7.57;;;;;;;-0.39;74.60;95020.63;5016838;28;20557;-73
2023/01/29 06:04:37;;;;;;;8.30;5.88;;;;;;;-0.41;74.62;95021.56;5016533;28;20462;-73
2023/01/29 06:07:04;;;;;;;9.90;6.05;;;;;;;-0.36;74.69;95024.75;5034614;28;20030;-73
2023/01/29 06:09:29;;;;;;;8.88;5.38;;;;;;;-0.30;74.30;95032.22;5032933;28;20540;-73
2023/01/29 06:11:54;;;;;;;11.02;6.07;;;;;;;-0.48;74.77;95015.84;5000239;28;20029;-73
2023/01/29 06:14:20;;;;;;;10.77;7.63;;;;;;;-0.33;74.22;95040.00;5016396;28;20044;-73
2023/01/29 06:16:45;;;;;;;8.20;6.18;;;;;;;-0.29;73.94;95041.53;5016565;28;20407;-73
2023/01/29 06:19:11;;;;;;;9.35;6.30;;;;;;;-0.40;73.79;95028.34;5034379;28;20112;-73
2023/01/29 06:21:36;;;;;;;11.68;8.35;;;;;;;-0.26;74.57;95047.34;5034236;28;20472;-73
2023/01/29 06:24:02;;;;;;;11.63;7.78;;;;;;;-0.30;74.67;95053.47;5032807;28;20053;-73
2023/01/29 06:26:27;;;;;;;10.48;7.72;;;;;;;-0.34;74.56;95025.56;5016960;28;20133;-73
2023/01/29 06:28:53;;;;;;;11.13;6.60;;;;;;;-0.20;74.31;95056.50;5024306;28;20037;-73
2023/01/29 06:31:18;;;;;;;10.05;6.65;;;;;;;-0.24;74.29;95053.25;5037024;28;20044;-73
2023/01/29 06:33:44;;;;;;;12.00;7.40;;;;;;;-0.40;74.93;95069.19;5047342;28;20072;-73
2023/01/29 06:36:09;;;;;;;11.93;7.38;;;;;;;-0.54;76.07;95059.47;5031591;28;20487;-73
2023/01/29 06:38:35;;;;;;;12.30;8.65;;;;;;;-0.36;75.03;95060.50;5043646;28;20040;-73
2023/01/29 06:41:07;;;;;;;9.38;7.05;;;;;;;-0.20;74.99;95066.72;5041222;28;20033;-73
2023/01/29 06:43:32;;;;;;;9.52;7.43;;;;;;;-0.13;75.02;95067.34;5033073;28;20049;-73
2023/01/29 06:45:58;;;;;;;9.48;6.32;;;;;;;-0.15;74.63;95069.94;5016521;28;20509;-73
2023/01/29 06:48:24;;;;;;;11.93;6.63;;;;;;;-0.09;74.08;95074.81;5029644;28;20017;-74
2023/01/29 06:50:49;;;;;;;9.88;6.47;;;;;;;0.01;73.84;95077.06;5047679;28;20434;-73
2023/01/29 06:53:16;;;;;;;9.88;6.70;;;;;;;-0.14;74.49;95074.19;5030320;28;20029;-73
2023/01/29 06:55:42;;;;;;;12.40;8.32;;;;;;;-0.13;74.41;95085.22;5033552;28;20025;-73
2023/01/29 06:58:09;;;;;;;11.90;7.40;;;;;;;-0.01;74.01;95080.47;5028728;28;20427;-73
2023/01/29 07:00:34;;;;;;;14.88;8.50;;;;;;;-0.03;73.62;95074.63;5015362;28;20037;-73
2023/01/29 07:03:00;;;;;;;13.45;7.65;;;;;;;0.05;74.10;95086.25;5029364;28;20453;-73
2023/01/29 07:05:25;;;;;;;15.45;11.10;;;;;;;0.07;73.77;95084.47;5048407;28;20429;-73
2023/01/29 07:07:51;;;;;;;12.15;8.50;;;;;;;0.03;73.41;95082.91;5029163;28;20033;-73
2023/01/29 07:10:16;;;;;;;11.43;8.65;;;;;;;-0.06;74.03;95073.88;5048680;28;20029;-72
2023/01/29 07:12:42;;;;;;;10.43;6.93;;;;;;;0.12;73.14;95083.41;5046872;28;20042;-73
2023/01/29 07:15:08;;;;;;;10.25;6.75;;;;;;;-0.10;73.66;95070.63;5027742;28;20038;-72
2023/01/29 07:17:33;;;;;;;10.05;7.15;;;;;;;0.05;73.34;95094.75;5012412;28;20035;-72
2023/01/29 07:19:58;;;;;;;30.80;14.80;;;;;;;0.02;74.05;95071.03;5045374;28;20422;-72
2023/01/29 07:22:24;;;;;;;29.73;16.25;;;;;;;0.18;73.20;95095.97;5042709;28;20414;-72
2023/01/29 07:24:49;;;;;;;25.15;13.88;;;;;;;0.02;73.14;95071.03;5011726;28;20084;-75
2023/01/29 07:27:15;;;;;;;18.65;12.13;;;;;;;0.12;73.71;95096.19;5042552;28;20025;-72
2023/01/29 07:29:40;;;;;;;21.75;14.30;;;;;;;0.19;73.58;95092.50;5047982;28;20418;-73
2023/01/29 07:32:06;;;;;;;17.23;12.18;;;;;;;0.35;73.16;95102.97;5025779;28;20037;-73
2023/01/29 07:34:32;;;;;;;15.50;10.88;;;;;;;0.35;73.20;95100.41;5040271;28;20029;-74
2023/01/29 07:36:57;;;;;;;17.38;11.40;;;;;;;0.16;72.80;95084.13;5027735;28;20029;-76
2023/01/29 07:39:23;;;;;;;17.48;11.30;;;;;;;0.34;73.92;95114.09;5025639;28;20033;-74
2023/01/29 07:41:48;;;;;;;18.15;12.98;;;;;;;0.40;72.98;95108.75;5041149;28;20418;-74
2023/01/29 07:44:14;;;;;;;39.47;23.50;;;;;;;0.05;73.85;95073.47;5039917;28;20446;-74
2023/01/29 07:46:39;;;;;;;21.13;13.07;;;;;;;0.12;72.47;95106.41;5045642;28;20020;-73
2023/01/29 07:49:04;;;;;;;18.90;12.57;;;;;;;0.03;72.94;95098.25;5040962;28;20044;-74
2023/01/29 07:51:30;;;;;;;19.70;13.50;;;;;;;0.26;73.66;95107.63;5011283;28;20036;-72
2023/01/29 07:53:55;;;;;;;16.20;10.75;;;;;;;0.25;73.57;95109.31;5047134;28;20043;-72
2023/01/29 07:56:21;;;;;;;12.45;8.30;;;;;;;0.29;72.95;95108.31;5046303;28;20044;-73
2023/01/29 07:58:46;;;;;;;15.88;10.82;;;;;;;0.27;73.96;95115.22;5048586;28;20029;-73
2023/01/29 08:01:12;;;;;;;17.42;10.05;;;;;;;0.35;73.60;95118.31;5052009;28;20028;-73
2023/01/29 08:03:37;;;;;;;31.92;18.20;;;;;;;0.24;73.63;95107.66;5047003;28;20029;-73
2023/01/29 08:06:03;;;;;;;19.05;11.93;;;;;;;0.37;72.95;95129.31;5021902;28;20029;-72
2023/01/29 08:08:29;;;;;;;13.98;9.73;;;;;;;0.18;73.61;95113.00;5019579;28;20091;-73
2023/01/29 08:10:54;;;;;;;16.83;10.70;;;;;;;0.20;73.79;95124.03;5026963;28;20064;-72
2023/01/29 08:13:20;;;;;;;16.38;10.18;;;;;;;0.22;74.08;95122.22;5014659;28;20408;-73
2023/01/29 08:15:45;;;;;;;17.13;9.73;;;;;;;0.46;72.92;95122.19;5021913;28;20087;-73
2023/01/29 08:18:11;;;;;;;15.32;9.70;;;;;;;0.48;72.59;95128.09;5036679;28;20554;-70
2023/01/29 08:20:37;;;;;;;16.42;10.48;;;;;;;0.35;73.02;95125.97;5038768;28;20141;-71
2023/01/29 08:23:08;;;;;;;20.02;12.40;;;;;;;0.32;73.44;95126.09;5023551;28;20052;-72
2023/01/29 08:25:34;;;;;;;13.90;9.45;;;;;;;0.20;73.41;95121.47;5033818;28;20053;-72
2023/01/29 08:28:00;;;;;;;13.18;9.30;;;;;;;0.38;73.39;95130.97;5021399;28;20040;-72
2023/01/29 08:30:26;;;;;;;14.63;9.13;;;;;;;0.37;71.81;95137.00;5044023;28;20029;-75
2023/01/29 08:32:52;;;;;;;15.80;9.40;;;;;;;0.19;72.64;95120.59;5013009;28;20561;-72
2023/01/29 08:35:17;;;;;;;17.98;10.32;;;;;;;0.34;73.08;95139.66;5012162;28;20120;-72
2023/01/29 08:37:43;;;;;;;16.88;11.27;;;;;;;0.39;72.81;95136.91;5011839;28;20026;-73
2023/01/29 08:40:11;;;;;;;15.88;10.48;;;;;;;0.40;72.58;95141.97;5029359;28;20479;-72
2023/01/29 08:42:36;;;;;;;21.98;12.00;;;;;;;0.26;72.84;95116.13;5028371;28;20049;-72
2023/01/29 08:45:02;;;;;;;18.50;11.85;;;;;;;0.54;71.93;95145.75;5012085;28;20392;-72
2023/01/29 08:47:27;;;;;;;18.67;11.77;;;;;;;0.59;72.00;95144.69;5028312;28;20525;-72
2023/01/29 08:49:53;;;;;;;17.00;10.20;;;;;;;0.41;70.85;95118.06;5029221;28;20507;-72
2023/01/29 08:52:18;;;;;;;24.17;14.10;;;;;;;0.34;71.50;95123.50;5027909;28;20033;-72
2023/01/29 08:54:43;;;;;;;33.38;19.95;;;;;;;0.41;70.69;95130.84;5027981;28;20029;-72
2023/01/29 08:57:09;;;;;;;27.02;16.58;;;;;;;0.46;71.43;95152.88;5011639;28;20040;-72
2023/01/29 08:59:34;;;;;;;21.08;14.93;;;;;;;0.50;70.67;95149.28;5027865;28;20033;-72
2023/01/29 09:02:00;;;;;;;23.98;17.65;;;;;;;0.27;71.01;95153.53;5027844;28;20037;-72
2023/01/29 09:04:25;;;;;;;28.20;17.45;;;;;;;0.52;70.70;95162.84;5028402;28;20052;-72
2023/01/29 09:06:51;;;;;;;18.40;13.52;;;;;;;0.42;71.38;95170.88;5029978;28;20029;-72
2023/01/29 09:09:17;;;;;;;22.83;13.85;;;;;;;0.43;70.56;95149.53;5029942;28;20049;-72
2023/01/29 09:11:43;;;;;;;21.05;14.15;;;;;;;0.44;71.35;95165.69;5029835;28;20498;-72
2023/01/29 09:14:11;;;;;;;21.17;13.93;;;;;;;0.47;71.25;95159.63;5029638;28;20487;-72
2023/01/29 09:16:36;;;;;;;32.40;20.30;;;;;;;0.56;70.92;95167.81;5029839;28;20042;-72
2023/01/29 09:19:02;;;;;;;16.90;12.00;;;;;;;0.39;70.88;95150.56;5029682;28;20029;-72
2023/01/29 09:21:27;;;;;;;15.60;10.52;;;;;;;0.53;70.50;95160.25;5013225;28;20052;-72
2023/01/29 09:23:52;;;;;;;18.13;11.15;;;;;;;0.54;70.91;95163.63;5029931;28;20407;-72
2023/01/29 09:26:18;;;;;;;14.00;9.35;;;;;;;0.69;69.53;95154.53;5029625;28;20049;-72
2023/01/29 09:28:43;;;;;;;15.38;9.55;;;;;;;0.39;69.96;95142.03;5013138;28;20037;-74
2023/01/29 09:31:09;;;;;;;16.88;11.10;;;;;;;0.46;70.32;95152.88;5012934;28;20029;-72
2023/01/29 09:33:34;;;;;;;19.45;13.13;;;;;;;0.42;71.16;95150.44;5002664;28;20025;-72
2023/01/29 09:36:01;;;;;;;20.20;13.13;;;;;;;0.43;70.54;95152.09;5037621;28;20441;-72
2023/01/29 09:38:27;;;;;;;27.92;14.77;;;;;;;0.51;70.87;95156.09;5019719;28;20414;-72
2023/01/29 09:41:18;;;;;;;22.95;12.30;;;;;;;0.30;70.21;95122.75;5019579;28;20034;-73
2023/01/29 09:43:58;;;;;;;18.97;10.30;;;;;;;0.18;71.00;95118.94;5036400;28;20033;-72
2023/01/29 09:46:39;;;;;;;16.87;10.47;;;;;;;0.42;70.75;95147.88;5036110;28;20292;-72
2023/01/29 09:49:13;;;;;;;21.58;13.48;;;;;;;0.26;71.31;95121.22;5036024;28;20033;-72
2023/01/29 09:51:50;;;;;;;16.15;9.60;;;;;;;0.26;70.97;95144.22;5019946;28;20473;-72
2023/01/29 09:54:47;;;;;;;17.60;10.65;;;;;;;0.17;71.25;95117.31;5019979;28;20068;-72
2023/01/29 09:57:16;;;;;;;26.42;13.80;;;;;;;0.38;71.20;95130.97;5036247;28;20029;-72
2023/01/29 09:59:41;;;;;;;25.88;16.20;;;;;;;0.44;71.37;95135.84;5019683;28;20041;-72
2023/01/29 10:02:09;;;;;;;28.83;15.88;;;;;;;0.60;71.38;95132.72;5037464;28;20372;-72
2023/01/29 10:05:07;;;;;;;30.85;14.07;;;;;;;0.46;71.13;95135.81;5019446;28;20095;-72
2023/01/29 10:07:42;;;;;;;22.40;13.45;;;;;;;0.66;69.93;95125.63;5019466;28;20499;-72
2023/01/29 10:10:19;;;;;;;26.98;14.63;;;;;;;0.70;69.54;95125.50;5035865;28;20033;-73
2023/01/29 10:13:01;;;;;;;18.45;11.70;;;;;;;0.48;69.87;95125.53;5035841;28;20128;-73
2023/01/29 10:15:39;;;;;;;18.23;12.45;;;;;;;0.41;70.72;95125.75;5035761;28;20033;-72
2023/01/29 10:18:26;;;;;;;17.10;11.27;;;;;;;0.38;70.81;95125.03;5036922;28;20407;-73
2023/01/29 10:20:57;;;;;;;17.83;11.15;;;;;;;0.37;70.52;95108.03;5036944;28;20029;-72
2023/01/29 10:23:26;;;;;;;21.15;13.75;;;;;;;0.59;70.10;95118.28;5035751;28;20029;-72
2023/01/29 10:25:52;;;;;;;26.17;17.35;;;;;;;0.65;70.59;95120.59;5035677;28;20045;-72
2023/01/29 10:28:24;;;;;;;38.10;23.42;;;;;;;0.75;69.89;95118.47;5019256;28;20029;-72
2023/01/29 10:30:50;;;;;;;34.78;20.38;;;;;;;0.49;70.33;95111.84;5035649;28;20060;-72
2023/01/29 10:33:37;;;;;;;19.20;11.50;;;;;;;0.53;70.07;95121.03;5018996;28;20037;-72
2023/01/29 10:36:05;;;;;;;23.20;15.43;;;;;;;0.59;69.48;95102.94;5035475;28;20025;-72
2023/01/29 10:38:44;;;;;;;18.17;11.98;;;;;;;0.53;70.00;95111.69;5019205;28;20391;-72
2023/01/29 10:41:09;;;;;;;35.90;23.15;;;;;;;0.51;70.14;95104.97;5020475;28;20431;-72
2023/01/29 10:43:52;;;;;;;42.42;26.58;;;;;;;0.60;70.16;95104.59;5034987;28;20060;-72
2023/01/29 10:46:21;;;;;;;30.73;18.92;;;;;;;0.64;69.81;95106.13;5032454;28;20483;-72
2023/01/29 10:48:49;;;;;;;26.02;17.05;;;;;;;0.68;69.54;95102.56;5033493;28;20040;-72
2023/01/29 10:51:37;;;;;;;19.30;11.10;;;;;;;0.53;69.69;95092.91;5032184;28;20037;-71
2023/01/29 10:54:17;;;;;;;19.02;11.85;;;;;;;0.51;70.62;95100.66;5032471;28;20630;-71
2023/01/29 10:57:08;;;;;;;29.95;17.90;;;;;;;0.48;70.86;95099.97;5033694;28;20034;-71
2023/01/29 11:00:06;;;;;;;25.20;15.13;;;;;;;0.56;70.54;95100.50;5032178;28;20043;-71
2023/01/29 11:02:32;;;;;;;24.35;14.27;;;;;;;0.53;70.40;95098.03;5031094;28;20106;-71
2023/01/29 11:04:57;;;;;;;28.50;16.98;;;;;;;0.54;70.48;95084.38;5015737;28;20037;-71
2023/01/29 11:07:23;;;;;;;32.33;19.60;;;;;;;0.59;70.41;95092.72;5032184;28;20033;-71
2023/01/29 11:09:56;;;;;;;24.58;14.82;;;;;;;0.62;70.59;95092.59;5015702;28;20045;-71
2023/01/29 11:12:25;;;;;;;19.77;12.98;;;;;;;0.68;70.97;95094.06;5032065;28;20034;-71
2023/01/29 11:15:00;;;;;;;20.85;12.38;;;;;;;0.63;70.31;95089.13;5015750;28;20033;-72
2023/01/29 11:17:26;;;;;;;24.15;14.65;;;;;;;0.51;70.48;95077.66;5032015;28;20025;-71
2023/01/29 11:19:54;;;;;;;25.52;14.85;;;;;;;0.39;70.69;95068.75;5015388;28;20434;-73
2023/01/29 11:22:29;;;;;;;20.73;12.43;;;;;;;0.55;70.08;95079.19;5015730;28;20034;-71
2023/01/29 11:25:17;;;;;;;26.85;15.57;;;;;;;0.49;71.46;95086.28;5015162;28;20091;-72
2023/01/29 11:27:47;;;;;;;25.80;14.57;;;;;;;0.59;71.45;95075.63;5033263;28;20389;-71
2023/01/29 11:30:19;;;;;;;26.92;15.23;;;;;;;0.37;71.00;95070.53;5032855;28;20472;-72
2023/01/29 11:32:47;;;;;;;35.53;19.42;;;;;;;0.42;72.05;95071.19;5015250;28;20034;-71
2023/01/29 11:35:13;;;;;;;31.27;18.15;;;;;;;0.49;72.17;95068.38;5015346;28;20017;-72
2023/01/29 11:37:39;;;;;;;30.00;16.90;;;;;;;0.49;70.42;95056.44;5031558;28;20056;-71
2023/01/29 11:40:17;;;;;;;21.85;12.63;;;;;;;0.27;71.63;95064.09;5031496;28;20035;-71
2023/01/29 11:42:43;;;;;;;26.63;14.88;;;;;;;0.48;71.50;95056.50;5033036;28;20033;-71
2023/01/29 11:45:24;;;;;;;25.00;15.38;;;;;;;0.61;71.59;95050.84;5015041;28;20124;-71
2023/01/29 11:47:51;;;;;;;27.27;17.63;;;;;;;0.67;71.47;95049.78;5031228;28;20033;-71
2023/01/29 11:50:25;;;;;;;22.13;13.38;;;;;;;0.92;69.74;95054.72;5014966;28;20507;-71
2023/01/29 11:52:50;;;;;;;24.92;14.98;;;;;;;0.88;69.74;95043.75;5031304;28;20048;-71
2023/01/29 11:55:24;;;;;;;29.23;16.50;;;;;;;0.94;69.24;95013.69;5030228;28;20033;-71
2023/01/29 11:58:15;;;;;;;22.15;13.27;;;;;;;1.16;68.93;95044.34;5014541;28;20029;-71
2023/01/29 12:00:41;;;;;;;21.42;12.65;;;;;;;1.20;69.45;95038.19;5031758;28;20037;-71
2023/01/29 12:03:27;;;;;;;23.45;12.85;;;;;;;1.00;68.38;95027.06;5014464;28;20021;-71
2023/01/29 12:06:07;;;;;;;24.15;13.48;;;;;;;1.14;68.96;95038.44;5032211;28;20060;-71
2023/01/29 12:08:35;;;;;;;21.55;12.77;;;;;;;1.10;68.48;95022.41;5014962;28;20111;-71